Terminal Aerodrome Forecast
Issued by NWS

Home | Current Version | Previous Version | Text Only | Print | Product List | Glossary On
Versions: 1 2 3 4 5 6 7 8 9 10 11 12 13 14 15 16
998
FTUS44 KBMX 241126
TAFMGM
TAF
KMGM 241126Z 2412/2512 22003KT P6SM FEW010
      TEMPO 2412/2414 BKN010
     FM241700 25006KT P6SM VCTS BKN040CB
     FM250100 23003KT P6SM VCSH BKN050
     FM250900 23003KT P6SM OVC008=

USA.gov is the U.S. government's official web portal to all federal, state and local government web resources and services.